sensor_id;sensor_type;location;lat;lon;timestamp;P1;durP1;ratioP1;P2;durP2;ratioP2
3405;SDS011;10008;48.682;9.016;2024-03-02T00:00:15;24.27;;;22.03;;
3405;SDS011;10008;48.682;9.016;2024-03-02T00:02:41;23.53;;;21.13;;
3405;SDS011;10008;48.682;9.016;2024-03-02T00:05:08;23.30;;;20.87;;
3405;SDS011;10008;48.682;9.016;2024-03-02T00:07:37;22.83;;;20.53;;
3405;SDS011;10008;48.682;9.016;2024-03-02T00:10:07;23.43;;;21.00;;
3405;SDS011;10008;48.682;9.016;2024-03-02T00:12:40;23.57;;;21.30;;
3405;SDS011;10008;48.682;9.016;2024-03-02T00:15:16;23.50;;;21.10;;
3405;SDS011;10008;48.682;9.016;2024-03-02T00:17:56;24.80;;;20.87;;
3405;SDS011;10008;48.682;9.016;2024-03-02T00:20:24;23.33;;;20.93;;
3405;SDS011;10008;48.682;9.016;2024-03-02T00:22:57;23.70;;;21.10;;
3405;SDS011;10008;48.682;9.016;2024-03-02T00:25:35;22.80;;;20.37;;
3405;SDS011;10008;48.682;9.016;2024-03-02T00:28:04;21.00;;;18.97;;
3405;SDS011;10008;48.682;9.016;2024-03-02T00:33:16;21.30;;;19.03;;
3405;SDS011;10008;48.682;9.016;2024-03-02T00:35:44;23.70;;;21.30;;
3405;SDS011;10008;48.682;9.016;2024-03-02T00:38:10;23.90;;;21.13;;
3405;SDS011;10008;48.682;9.016;2024-03-02T00:40:35;23.43;;;21.10;;
3405;SDS011;10008;48.682;9.016;2024-03-02T00:43:01;22.70;;;20.30;;
3405;SDS011;10008;48.682;9.016;2024-03-02T00:45:28;22.23;;;19.90;;
3405;SDS011;10008;48.682;9.016;2024-03-02T00:47:54;22.87;;;20.50;;
3405;SDS011;10008;48.682;9.016;2024-03-02T00:50:20;24.10;;;21.57;;
3405;SDS011;10008;48.682;9.016;2024-03-02T00:52:46;22.47;;;20.17;;
3405;SDS011;10008;48.682;9.016;2024-03-02T00:55:15;24.77;;;21.70;;
3405;SDS011;10008;48.682;9.016;2024-03-02T00:57:41;24.50;;;21.90;;
3405;SDS011;10008;48.682;9.016;2024-03-02T01:00:08;23.23;;;20.77;;
3405;SDS011;10008;48.682;9.016;2024-03-02T01:02:37;23.13;;;20.67;;
3405;SDS011;10008;48.682;9.016;2024-03-02T01:05:02;24.07;;;21.23;;
3405;SDS011;10008;48.682;9.016;2024-03-02T01:07:30;24.73;;;22.13;;
3405;SDS011;10008;48.682;9.016;2024-03-02T01:09:56;24.90;;;21.57;;
3405;SDS011;10008;48.682;9.016;2024-03-02T01:12:21;23.03;;;20.53;;
3405;SDS011;10008;48.682;9.016;2024-03-02T01:14:47;24.00;;;21.50;;
3405;SDS011;10008;48.682;9.016;2024-03-02T01:17:13;24.17;;;21.70;;
3405;SDS011;10008;48.682;9.016;2024-03-02T01:19:41;25.73;;;22.50;;
3405;SDS011;10008;48.682;9.016;2024-03-02T01:22:07;25.73;;;22.77;;
3405;SDS011;10008;48.682;9.016;2024-03-02T01:24:32;26.43;;;22.87;;
3405;SDS011;10008;48.682;9.016;2024-03-02T01:26:59;25.20;;;21.93;;
3405;SDS011;10008;48.682;9.016;2024-03-02T01:29:24;26.67;;;22.27;;
3405;SDS011;10008;48.682;9.016;2024-03-02T01:31:50;26.70;;;22.60;;
3405;SDS011;10008;48.682;9.016;2024-03-02T01:34:16;27.10;;;22.50;;
3405;SDS011;10008;48.682;9.016;2024-03-02T01:36:42;26.20;;;22.40;;
3405;SDS011;10008;48.682;9.016;2024-03-02T01:39:08;26.70;;;23.80;;
3405;SDS011;10008;48.682;9.016;2024-03-02T01:41:35;28.90;;;23.47;;
3405;SDS011;10008;48.682;9.016;2024-03-02T01:44:01;27.10;;;23.43;;
3405;SDS011;10008;48.682;9.016;2024-03-02T01:46:26;25.50;;;22.53;;
3405;SDS011;10008;48.682;9.016;2024-03-02T01:48:52;27.70;;;24.30;;
3405;SDS011;10008;48.682;9.016;2024-03-02T01:51:18;27.90;;;23.87;;
3405;SDS011;10008;48.682;9.016;2024-03-02T01:53:43;28.57;;;24.30;;
3405;SDS011;10008;48.682;9.016;2024-03-02T01:56:09;26.50;;;23.33;;
3405;SDS011;10008;48.682;9.016;2024-03-02T01:58:35;28.30;;;24.13;;
3405;SDS011;10008;48.682;9.016;2024-03-02T02:01:01;25.30;;;21.70;;
3405;SDS011;10008;48.682;9.016;2024-03-02T02:03:27;27.00;;;23.00;;
3405;SDS011;10008;48.682;9.016;2024-03-02T02:05:52;26.13;;;23.13;;
3405;SDS011;10008;48.682;9.016;2024-03-02T02:08:18;26.67;;;22.87;;
3405;SDS011;10008;48.682;9.016;2024-03-02T02:10:44;27.30;;;22.20;;
3405;SDS011;10008;48.682;9.016;2024-03-02T02:13:09;28.97;;;23.07;;
3405;SDS011;10008;48.682;9.016;2024-03-02T02:15:35;26.07;;;23.03;;
3405;SDS011;10008;48.682;9.016;2024-03-02T02:18:01;28.53;;;24.23;;
3405;SDS011;10008;48.682;9.016;2024-03-02T02:20:28;28.37;;;23.43;;
3405;SDS011;10008;48.682;9.016;2024-03-02T02:22:55;28.33;;;24.23;;
3405;SDS011;10008;48.682;9.016;2024-03-02T02:25:21;28.60;;;24.70;;
3405;SDS011;10008;48.682;9.016;2024-03-02T02:27:47;28.87;;;24.93;;
3405;SDS011;10008;48.682;9.016;2024-03-02T02:30:13;29.73;;;25.23;;
3405;SDS011;10008;48.682;9.016;2024-03-02T02:32:38;28.63;;;24.43;;
3405;SDS011;10008;48.682;9.016;2024-03-02T02:35:04;26.23;;;23.33;;
3405;SDS011;10008;48.682;9.016;2024-03-02T02:37:30;31.03;;;25.73;;
3405;SDS011;10008;48.682;9.016;2024-03-02T02:39:56;29.97;;;25.30;;
3405;SDS011;10008;48.682;9.016;2024-03-02T02:42:22;26.27;;;23.40;;
3405;SDS011;10008;48.682;9.016;2024-03-02T02:44:47;31.53;;;24.27;;
3405;SDS011;10008;48.682;9.016;2024-03-02T02:47:13;30.17;;;23.73;;
3405;SDS011;10008;48.682;9.016;2024-03-02T02:49:39;34.27;;;25.70;;
3405;SDS011;10008;48.682;9.016;2024-03-02T02:52:04;27.87;;;23.03;;
3405;SDS011;10008;48.682;9.016;2024-03-02T02:54:30;27.27;;;24.37;;
3405;SDS011;10008;48.682;9.016;2024-03-02T02:56:56;29.00;;;24.10;;
3405;SDS011;10008;48.682;9.016;2024-03-02T02:59:21;28.73;;;24.23;;
3405;SDS011;10008;48.682;9.016;2024-03-02T03:01:47;28.97;;;23.70;;
3405;SDS011;10008;48.682;9.016;2024-03-02T03:04:13;28.37;;;24.37;;
3405;SDS011;10008;48.682;9.016;2024-03-02T03:06:38;29.53;;;24.07;;
3405;SDS011;10008;48.682;9.016;2024-03-02T03:09:04;32.77;;;24.40;;
3405;SDS011;10008;48.682;9.016;2024-03-02T03:11:30;30.97;;;24.53;;
3405;SDS011;10008;48.682;9.016;2024-03-02T03:13:55;36.67;;;24.87;;
3405;SDS011;10008;48.682;9.016;2024-03-02T03:16:21;29.27;;;24.33;;
3405;SDS011;10008;48.682;9.016;2024-03-02T03:18:47;31.63;;;23.90;;
3405;SDS011;10008;48.682;9.016;2024-03-02T03:21:15;35.90;;;25.40;;
3405;SDS011;10008;48.682;9.016;2024-03-02T03:23:40;29.30;;;24.00;;
3405;SDS011;10008;48.682;9.016;2024-03-02T03:26:06;31.30;;;25.07;;
3405;SDS011;10008;48.682;9.016;2024-03-02T03:28:32;31.80;;;25.13;;
3405;SDS011;10008;48.682;9.016;2024-03-02T03:30:57;31.33;;;25.33;;
3405;SDS011;10008;48.682;9.016;2024-03-02T03:33:23;28.70;;;24.33;;
3405;SDS011;10008;48.682;9.016;2024-03-02T03:35:49;32.47;;;26.20;;
3405;SDS011;10008;48.682;9.016;2024-03-02T03:38:14;32.13;;;25.57;;
3405;SDS011;10008;48.682;9.016;2024-03-02T03:40:41;35.73;;;26.20;;
3405;SDS011;10008;48.682;9.016;2024-03-02T03:43:07;30.63;;;24.97;;
3405;SDS011;10008;48.682;9.016;2024-03-02T03:45:33;31.97;;;24.30;;
3405;SDS011;10008;48.682;9.016;2024-03-02T03:47:59;36.23;;;25.73;;
3405;SDS011;10008;48.682;9.016;2024-03-02T03:50:25;32.40;;;26.60;;
3405;SDS011;10008;48.682;9.016;2024-03-02T03:52:50;31.33;;;25.50;;
3405;SDS011;10008;48.682;9.016;2024-03-02T03:55:16;30.30;;;25.70;;
3405;SDS011;10008;48.682;9.016;2024-03-02T03:57:42;31.90;;;26.97;;
3405;SDS011;10008;48.682;9.016;2024-03-02T04:00:07;31.53;;;26.00;;
3405;SDS011;10008;48.682;9.016;2024-03-02T04:02:38;29.97;;;25.23;;
3405;SDS011;10008;48.682;9.016;2024-03-02T04:05:04;34.40;;;26.70;;
3405;SDS011;10008;48.682;9.016;2024-03-02T04:07:34;28.30;;;23.73;;
3405;SDS011;10008;48.682;9.016;2024-03-02T04:10:06;29.23;;;24.20;;
3405;SDS011;10008;48.682;9.016;2024-03-02T04:12:33;31.20;;;25.70;;
3405;SDS011;10008;48.682;9.016;2024-03-02T04:15:00;30.27;;;25.77;;
3405;SDS011;10008;48.682;9.016;2024-03-02T04:17:27;29.87;;;24.00;;
3405;SDS011;10008;48.682;9.016;2024-03-02T04:19:52;32.03;;;25.63;;
3405;SDS011;10008;48.682;9.016;2024-03-02T04:22:18;29.63;;;25.20;;
3405;SDS011;10008;48.682;9.016;2024-03-02T04:24:44;29.20;;;25.43;;
3405;SDS011;10008;48.682;9.016;2024-03-02T04:27:09;28.83;;;24.40;;
3405;SDS011;10008;48.682;9.016;2024-03-02T04:29:35;29.40;;;23.70;;
3405;SDS011;10008;48.682;9.016;2024-03-02T04:32:01;29.00;;;24.70;;
3405;SDS011;10008;48.682;9.016;2024-03-02T04:34:26;30.80;;;24.43;;
3405;SDS011;10008;48.682;9.016;2024-03-02T04:36:52;29.07;;;24.60;;
3405;SDS011;10008;48.682;9.016;2024-03-02T04:39:18;29.57;;;24.00;;
3405;SDS011;10008;48.682;9.016;2024-03-02T04:41:43;27.93;;;23.80;;
3405;SDS011;10008;48.682;9.016;2024-03-02T04:44:10;29.20;;;23.37;;
3405;SDS011;10008;48.682;9.016;2024-03-02T04:46:36;28.20;;;22.80;;
3405;SDS011;10008;48.682;9.016;2024-03-02T04:49:02;27.50;;;24.00;;
3405;SDS011;10008;48.682;9.016;2024-03-02T04:51:27;31.13;;;23.90;;
3405;SDS011;10008;48.682;9.016;2024-03-02T04:53:53;26.50;;;22.80;;
3405;SDS011;10008;48.682;9.016;2024-03-02T04:56:19;31.30;;;25.07;;
3405;SDS011;10008;48.682;9.016;2024-03-02T04:59:04;29.43;;;25.07;;
3405;SDS011;10008;48.682;9.016;2024-03-02T05:01:29;35.07;;;26.50;;
3405;SDS011;10008;48.682;9.016;2024-03-02T05:03:55;33.40;;;24.70;;
3405;SDS011;10008;48.682;9.016;2024-03-02T05:06:21;32.60;;;24.53;;
3405;SDS011;10008;48.682;9.016;2024-03-02T05:08:47;27.90;;;23.03;;
3405;SDS011;10008;48.682;9.016;2024-03-02T05:11:13;30.30;;;24.03;;
3405;SDS011;10008;48.682;9.016;2024-03-02T05:14:13;29.30;;;24.73;;
3405;SDS011;10008;48.682;9.016;2024-03-02T05:16:39;29.90;;;23.30;;
3405;SDS011;10008;48.682;9.016;2024-03-02T05:19:06;32.07;;;24.70;;
3405;SDS011;10008;48.682;9.016;2024-03-02T05:21:33;30.77;;;24.13;;
3405;SDS011;10008;48.682;9.016;2024-03-02T05:23:59;27.80;;;23.77;;
3405;SDS011;10008;48.682;9.016;2024-03-02T05:26:25;28.57;;;23.53;;
3405;SDS011;10008;48.682;9.016;2024-03-02T05:28:51;28.60;;;22.60;;
3405;SDS011;10008;48.682;9.016;2024-03-02T05:31:17;29.07;;;24.30;;
3405;SDS011;10008;48.682;9.016;2024-03-02T05:33:43;28.73;;;25.00;;
3405;SDS011;10008;48.682;9.016;2024-03-02T05:36:09;27.30;;;23.47;;
3405;SDS011;10008;48.682;9.016;2024-03-02T05:38:34;29.10;;;23.83;;
3405;SDS011;10008;48.682;9.016;2024-03-02T05:41:01;27.20;;;23.47;;
3405;SDS011;10008;48.682;9.016;2024-03-02T05:43:27;33.50;;;26.13;;
3405;SDS011;10008;48.682;9.016;2024-03-02T05:45:52;29.37;;;24.43;;
3405;SDS011;10008;48.682;9.016;2024-03-02T05:48:18;28.63;;;24.30;;
3405;SDS011;10008;48.682;9.016;2024-03-02T05:50:44;28.80;;;24.07;;
3405;SDS011;10008;48.682;9.016;2024-03-02T05:53:09;29.07;;;23.70;;
3405;SDS011;10008;48.682;9.016;2024-03-02T05:55:35;31.63;;;24.30;;
3405;SDS011;10008;48.682;9.016;2024-03-02T05:58:01;29.03;;;21.90;;
3405;SDS011;10008;48.682;9.016;2024-03-02T06:00:45;25.57;;;21.23;;
3405;SDS011;10008;48.682;9.016;2024-03-02T06:03:11;29.40;;;22.97;;
3405;SDS011;10008;48.682;9.016;2024-03-02T06:05:37;26.90;;;22.20;;
3405;SDS011;10008;48.682;9.016;2024-03-02T06:08:03;28.43;;;23.40;;
3405;SDS011;10008;48.682;9.016;2024-03-02T06:10:29;25.57;;;21.20;;
3405;SDS011;10008;48.682;9.016;2024-03-02T06:12:54;26.50;;;22.13;;
3405;SDS011;10008;48.682;9.016;2024-03-02T06:15:20;30.17;;;22.50;;
3405;SDS011;10008;48.682;9.016;2024-03-02T06:17:46;23.53;;;21.03;;
3405;SDS011;10008;48.682;9.016;2024-03-02T06:20:11;29.63;;;22.53;;
3405;SDS011;10008;48.682;9.016;2024-03-02T06:22:37;25.20;;;21.43;;
3405;SDS011;10008;48.682;9.016;2024-03-02T06:25:03;24.40;;;21.80;;
3405;SDS011;10008;48.682;9.016;2024-03-02T06:27:29;27.80;;;22.87;;
3405;SDS011;10008;48.682;9.016;2024-03-02T06:29:55;26.77;;;23.57;;
3405;SDS011;10008;48.682;9.016;2024-03-02T06:32:20;26.33;;;22.47;;
3405;SDS011;10008;48.682;9.016;2024-03-02T06:34:46;28.80;;;22.70;;
3405;SDS011;10008;48.682;9.016;2024-03-02T06:37:12;27.97;;;23.17;;
3405;SDS011;10008;48.682;9.016;2024-03-02T06:39:38;31.50;;;23.57;;
3405;SDS011;10008;48.682;9.016;2024-03-02T06:42:03;32.60;;;24.90;;
3405;SDS011;10008;48.682;9.016;2024-03-02T06:44:29;29.20;;;24.80;;
3405;SDS011;10008;48.682;9.016;2024-03-02T06:46:55;27.27;;;23.03;;
3405;SDS011;10008;48.682;9.016;2024-03-02T06:49:20;27.20;;;23.37;;
3405;SDS011;10008;48.682;9.016;2024-03-02T06:51:46;28.60;;;23.77;;
3405;SDS011;10008;48.682;9.016;2024-03-02T06:54:12;29.70;;;23.27;;
3405;SDS011;10008;48.682;9.016;2024-03-02T06:56:38;27.90;;;23.13;;
3405;SDS011;10008;48.682;9.016;2024-03-02T06:59:04;28.27;;;22.80;;
3405;SDS011;10008;48.682;9.016;2024-03-02T07:01:29;29.47;;;24.53;;
3405;SDS011;10008;48.682;9.016;2024-03-02T07:03:55;32.13;;;25.60;;
3405;SDS011;10008;48.682;9.016;2024-03-02T07:06:21;29.07;;;24.77;;
3405;SDS011;10008;48.682;9.016;2024-03-02T07:08:47;28.40;;;25.10;;
3405;SDS011;10008;48.682;9.016;2024-03-02T07:11:12;32.57;;;26.70;;
3405;SDS011;10008;48.682;9.016;2024-03-02T07:13:38;31.30;;;23.73;;
3405;SDS011;10008;48.682;9.016;2024-03-02T07:16:04;28.93;;;24.90;;
3405;SDS011;10008;48.682;9.016;2024-03-02T07:18:48;27.50;;;22.70;;
3405;SDS011;10008;48.682;9.016;2024-03-02T07:21:17;27.80;;;23.07;;
3405;SDS011;10008;48.682;9.016;2024-03-02T07:23:43;27.17;;;22.93;;
3405;SDS011;10008;48.682;9.016;2024-03-02T07:26:08;26.53;;;23.30;;
3405;SDS011;10008;48.682;9.016;2024-03-02T07:28:34;27.50;;;23.77;;
3405;SDS011;10008;48.682;9.016;2024-03-02T07:31:03;27.20;;;23.10;;
3405;SDS011;10008;48.682;9.016;2024-03-02T07:33:30;28.43;;;23.30;;
3405;SDS011;10008;48.682;9.016;2024-03-02T07:35:56;27.30;;;22.40;;
3405;SDS011;10008;48.682;9.016;2024-03-02T07:38:24;25.57;;;22.07;;
3405;SDS011;10008;48.682;9.016;2024-03-02T07:40:50;21.53;;;19.23;;
3405;SDS011;10008;48.682;9.016;2024-03-02T07:43:16;22.13;;;19.63;;
3405;SDS011;10008;48.682;9.016;2024-03-02T07:45:43;22.87;;;19.67;;
3405;SDS011;10008;48.682;9.016;2024-03-02T07:48:08;22.70;;;20.30;;
3405;SDS011;10008;48.682;9.016;2024-03-02T07:50:34;25.57;;;21.57;;
3405;SDS011;10008;48.682;9.016;2024-03-02T07:53:00;28.63;;;22.27;;
3405;SDS011;10008;48.682;9.016;2024-03-02T07:55:26;22.40;;;19.97;;
3405;SDS011;10008;48.682;9.016;2024-03-02T07:57:52;23.40;;;19.13;;
3405;SDS011;10008;48.682;9.016;2024-03-02T08:00:18;22.70;;;20.20;;
3405;SDS011;10008;48.682;9.016;2024-03-02T08:02:44;23.23;;;20.73;;
3405;SDS011;10008;48.682;9.016;2024-03-02T08:05:10;21.43;;;19.23;;
3405;SDS011;10008;48.682;9.016;2024-03-02T08:07:35;24.03;;;20.57;;
3405;SDS011;10008;48.682;9.016;2024-03-02T08:10:02;20.20;;;18.10;;
3405;SDS011;10008;48.682;9.016;2024-03-02T08:12:27;18.70;;;16.77;;
3405;SDS011;10008;48.682;9.016;2024-03-02T08:14:53;19.20;;;16.20;;
3405;SDS011;10008;48.682;9.016;2024-03-02T08:17:19;17.00;;;15.40;;
3405;SDS011;10008;48.682;9.016;2024-03-02T08:19:44;17.23;;;15.53;;
3405;SDS011;10008;48.682;9.016;2024-03-02T08:22:10;17.10;;;15.30;;
3405;SDS011;10008;48.682;9.016;2024-03-02T08:24:37;16.03;;;14.50;;
3405;SDS011;10008;48.682;9.016;2024-03-02T08:27:02;15.53;;;14.10;;
3405;SDS011;10008;48.682;9.016;2024-03-02T08:29:28;15.90;;;14.40;;
3405;SDS011;10008;48.682;9.016;2024-03-02T08:31:54;16.37;;;14.83;;
3405;SDS011;10008;48.682;9.016;2024-03-02T08:34:20;15.73;;;14.23;;
3405;SDS011;10008;48.682;9.016;2024-03-02T08:36:46;16.07;;;14.47;;
3405;SDS011;10008;48.682;9.016;2024-03-02T08:39:12;15.70;;;14.30;;
3405;SDS011;10008;48.682;9.016;2024-03-02T08:41:47;16.10;;;14.50;;
3405;SDS011;10008;48.682;9.016;2024-03-02T08:44:12;15.70;;;14.10;;
3405;SDS011;10008;48.682;9.016;2024-03-02T08:46:39;14.90;;;13.53;;
3405;SDS011;10008;48.682;9.016;2024-03-02T08:49:05;15.33;;;13.97;;
3405;SDS011;10008;48.682;9.016;2024-03-02T08:51:31;15.00;;;13.70;;
3405;SDS011;10008;48.682;9.016;2024-03-02T08:53:58;15.60;;;14.20;;
3405;SDS011;10008;48.682;9.016;2024-03-02T08:56:24;14.97;;;13.67;;
3405;SDS011;10008;48.682;9.016;2024-03-02T08:58:50;15.20;;;13.87;;
3405;SDS011;10008;48.682;9.016;2024-03-02T09:01:17;15.30;;;13.90;;
3405;SDS011;10008;48.682;9.016;2024-03-02T09:03:43;15.30;;;13.90;;
3405;SDS011;10008;48.682;9.016;2024-03-02T09:06:12;15.03;;;13.60;;
3405;SDS011;10008;48.682;9.016;2024-03-02T09:08:39;15.17;;;13.80;;
3405;SDS011;10008;48.682;9.016;2024-03-02T09:11:08;14.37;;;13.07;;
3405;SDS011;10008;48.682;9.016;2024-03-02T09:13:34;14.03;;;12.80;;
3405;SDS011;10008;48.682;9.016;2024-03-02T09:16:00;15.10;;;13.70;;
3405;SDS011;10008;48.682;9.016;2024-03-02T09:18:26;15.10;;;13.57;;
3405;SDS011;10008;48.682;9.016;2024-03-02T09:20:52;15.50;;;14.10;;
3405;SDS011;10008;48.682;9.016;2024-03-02T09:23:18;14.27;;;12.97;;
3405;SDS011;10008;48.682;9.016;2024-03-02T09:25:43;14.90;;;13.50;;
3405;SDS011;10008;48.682;9.016;2024-03-02T09:28:09;14.67;;;13.30;;
3405;SDS011;10008;48.682;9.016;2024-03-02T09:30:35;14.43;;;13.10;;
3405;SDS011;10008;48.682;9.016;2024-03-02T09:33:01;14.17;;;12.97;;
3405;SDS011;10008;48.682;9.016;2024-03-02T09:35:27;13.97;;;12.77;;
3405;SDS011;10008;48.682;9.016;2024-03-02T09:37:52;14.50;;;13.20;;
3405;SDS011;10008;48.682;9.016;2024-03-02T09:40:20;14.10;;;12.80;;
3405;SDS011;10008;48.682;9.016;2024-03-02T09:42:47;14.17;;;12.67;;
3405;SDS011;10008;48.682;9.016;2024-03-02T09:45:26;13.13;;;12.07;;
3405;SDS011;10008;48.682;9.016;2024-03-02T09:47:52;13.80;;;12.70;;
3405;SDS011;10008;48.682;9.016;2024-03-02T09:50:17;13.50;;;12.40;;
3405;SDS011;10008;48.682;9.016;2024-03-02T09:52:43;13.97;;;12.77;;
3405;SDS011;10008;48.682;9.016;2024-03-02T09:55:13;12.50;;;11.50;;
3405;SDS011;10008;48.682;9.016;2024-03-02T09:57:41;12.47;;;11.47;;
3405;SDS011;10008;48.682;9.016;2024-03-02T10:00:10;12.10;;;11.10;;
3405;SDS011;10008;48.682;9.016;2024-03-02T10:02:40;11.83;;;10.87;;
3405;SDS011;10008;48.682;9.016;2024-03-02T10:05:07;12.33;;;11.13;;
3405;SDS011;10008;48.682;9.016;2024-03-02T10:07:37;12.23;;;11.23;;
3405;SDS011;10008;48.682;9.016;2024-03-02T10:10:12;12.10;;;11.10;;
3405;SDS011;10008;48.682;9.016;2024-03-02T10:12:39;11.63;;;10.73;;
3405;SDS011;10008;48.682;9.016;2024-03-02T10:15:05;10.50;;;9.70;;
3405;SDS011;10008;48.682;9.016;2024-03-02T10:17:32;11.00;;;10.10;;
3405;SDS011;10008;48.682;9.016;2024-03-02T10:19:58;10.43;;;9.63;;
3405;SDS011;10008;48.682;9.016;2024-03-02T10:22:24;10.30;;;9.50;;
3405;SDS011;10008;48.682;9.016;2024-03-02T10:24:51;10.10;;;9.30;;
3405;SDS011;10008;48.682;9.016;2024-03-02T10:27:25;10.63;;;9.83;;
3405;SDS011;10008;48.682;9.016;2024-03-02T10:29:52;10.17;;;9.40;;
3405;SDS011;10008;48.682;9.016;2024-03-02T10:32:18;10.90;;;10.10;;
3405;SDS011;10008;48.682;9.016;2024-03-02T10:34:47;10.70;;;9.90;;
3405;SDS011;10008;48.682;9.016;2024-03-02T10:37:15;11.50;;;10.33;;
3405;SDS011;10008;48.682;9.016;2024-03-02T10:39:42;9.67;;;8.97;;
3405;SDS011;10008;48.682;9.016;2024-03-02T10:42:08;10.67;;;9.87;;
3405;SDS011;10008;48.682;9.016;2024-03-02T10:44:34;10.20;;;9.40;;
3405;SDS011;10008;48.682;9.016;2024-03-02T10:47:03;10.30;;;9.47;;
3405;SDS011;10008;48.682;9.016;2024-03-02T10:49:30;10.60;;;9.80;;
3405;SDS011;10008;48.682;9.016;2024-03-02T10:51:57;10.53;;;9.63;;
3405;SDS011;10008;48.682;9.016;2024-03-02T10:54:24;10.27;;;9.47;;
3405;SDS011;10008;48.682;9.016;2024-03-02T10:56:55;10.20;;;9.50;;
3405;SDS011;10008;48.682;9.016;2024-03-02T10:59:33;10.23;;;9.40;;
3405;SDS011;10008;48.682;9.016;2024-03-02T11:02:01;10.00;;;9.30;;
3405;SDS011;10008;48.682;9.016;2024-03-02T11:04:28;10.97;;;9.97;;
3405;SDS011;10008;48.682;9.016;2024-03-02T11:07:04;11.63;;;10.73;;
3405;SDS011;10008;48.682;9.016;2024-03-02T11:09:35;12.63;;;11.63;;
3405;SDS011;10008;48.682;9.016;2024-03-02T11:14:31;10.10;;;9.40;;
3405;SDS011;10008;48.682;9.016;2024-03-02T11:17:01;10.00;;;9.30;;
3405;SDS011;10008;48.682;9.016;2024-03-02T11:19:28;10.17;;;9.37;;
3405;SDS011;10008;48.682;9.016;2024-03-02T11:21:56;9.93;;;9.23;;
3405;SDS011;10008;48.682;9.016;2024-03-02T11:26:58;9.97;;;9.27;;
3405;SDS011;10008;48.682;9.016;2024-03-02T11:32:26;10.33;;;9.53;;
3405;SDS011;10008;48.682;9.016;2024-03-02T11:34:51;10.13;;;9.43;;
3405;SDS011;10008;48.682;9.016;2024-03-02T11:37:18;10.20;;;9.47;;
3405;SDS011;10008;48.682;9.016;2024-03-02T11:39:46;10.20;;;9.50;;
3405;SDS011;10008;48.682;9.016;2024-03-02T11:42:14;10.10;;;9.40;;
3405;SDS011;10008;48.682;9.016;2024-03-02T11:44:47;10.63;;;9.83;;
3405;SDS011;10008;48.682;9.016;2024-03-02T11:47:15;10.10;;;9.40;;
3405;SDS011;10008;48.682;9.016;2024-03-02T11:52:12;9.80;;;9.10;;
3405;SDS011;10008;48.682;9.016;2024-03-02T11:54:41;19.70;;;17.57;;
3405;SDS011;10008;48.682;9.016;2024-03-02T11:57:15;10.47;;;9.67;;
3405;SDS011;10008;48.682;9.016;2024-03-02T11:59:42;11.80;;;10.90;;
3405;SDS011;10008;48.682;9.016;2024-03-02T12:02:14;10.77;;;9.97;;
3405;SDS011;10008;48.682;9.016;2024-03-02T12:04:46;10.40;;;9.60;;
3405;SDS011;10008;48.682;9.016;2024-03-02T12:07:19;10.30;;;9.50;;
3405;SDS011;10008;48.682;9.016;2024-03-02T12:09:49;10.13;;;9.43;;
3405;SDS011;10008;48.682;9.016;2024-03-02T12:12:25;10.67;;;9.87;;
3405;SDS011;10008;48.682;9.016;2024-03-02T12:14:52;9.87;;;9.07;;
3405;SDS011;10008;48.682;9.016;2024-03-02T12:17:20;9.77;;;9.07;;
3405;SDS011;10008;48.682;9.016;2024-03-02T12:19:46;10.47;;;9.67;;
3405;SDS011;10008;48.682;9.016;2024-03-02T12:22:12;9.80;;;9.10;;
3405;SDS011;10008;48.682;9.016;2024-03-02T12:24:38;20.17;;;18.17;;
3405;SDS011;10008;48.682;9.016;2024-03-02T12:27:05;10.83;;;9.83;;
3405;SDS011;10008;48.682;9.016;2024-03-02T12:29:32;10.27;;;9.47;;
3405;SDS011;10008;48.682;9.016;2024-03-02T12:31:59;10.20;;;9.40;;
3405;SDS011;10008;48.682;9.016;2024-03-02T12:34:26;10.20;;;9.43;;
3405;SDS011;10008;48.682;9.016;2024-03-02T12:36:52;10.60;;;9.83;;
3405;SDS011;10008;48.682;9.016;2024-03-02T12:39:18;12.40;;;11.40;;
3405;SDS011;10008;48.682;9.016;2024-03-02T12:41:48;10.47;;;9.67;;
3405;SDS011;10008;48.682;9.016;2024-03-02T12:44:19;12.70;;;11.70;;
3405;SDS011;10008;48.682;9.016;2024-03-02T12:46:46;14.20;;;12.93;;
3405;SDS011;10008;48.682;9.016;2024-03-02T12:49:12;10.80;;;10.00;;
3405;SDS011;10008;48.682;9.016;2024-03-02T12:51:41;10.40;;;9.60;;
3405;SDS011;10008;48.682;9.016;2024-03-02T12:54:08;10.13;;;9.43;;
3405;SDS011;10008;48.682;9.016;2024-03-02T12:56:38;10.63;;;9.83;;
3405;SDS011;10008;48.682;9.016;2024-03-02T12:59:07;10.80;;;10.00;;
3405;SDS011;10008;48.682;9.016;2024-03-02T13:01:35;9.83;;;9.13;;
3405;SDS011;10008;48.682;9.016;2024-03-02T13:04:01;10.60;;;9.80;;
3405;SDS011;10008;48.682;9.016;2024-03-02T13:06:28;10.03;;;9.33;;
3405;SDS011;10008;48.682;9.016;2024-03-02T13:08:54;10.00;;;9.30;;
3405;SDS011;10008;48.682;9.016;2024-03-02T13:11:21;9.70;;;9.00;;
3405;SDS011;10008;48.682;9.016;2024-03-02T13:13:48;9.80;;;9.10;;
3405;SDS011;10008;48.682;9.016;2024-03-02T13:16:15;9.63;;;8.83;;
3405;SDS011;10008;48.682;9.016;2024-03-02T13:18:41;9.70;;;8.90;;
3405;SDS011;10008;48.682;9.016;2024-03-02T13:21:09;9.83;;;9.13;;
3405;SDS011;10008;48.682;9.016;2024-03-02T13:23:35;9.97;;;9.17;;
3405;SDS011;10008;48.682;9.016;2024-03-02T13:26:00;10.30;;;9.50;;
3405;SDS011;10008;48.682;9.016;2024-03-02T13:28:26;10.47;;;9.77;;
3405;SDS011;10008;48.682;9.016;2024-03-02T13:30:53;10.30;;;9.50;;
3405;SDS011;10008;48.682;9.016;2024-03-02T13:33:18;10.00;;;9.30;;
3405;SDS011;10008;48.682;9.016;2024-03-02T13:35:51;10.00;;;9.30;;
3405;SDS011;10008;48.682;9.016;2024-03-02T13:38:18;9.70;;;9.00;;
3405;SDS011;10008;48.682;9.016;2024-03-02T13:40:45;9.83;;;9.07;;
3405;SDS011;10008;48.682;9.016;2024-03-02T13:43:11;10.20;;;9.40;;
3405;SDS011;10008;48.682;9.016;2024-03-02T13:45:38;9.60;;;8.90;;
3405;SDS011;10008;48.682;9.016;2024-03-02T13:48:04;10.13;;;9.43;;
3405;SDS011;10008;48.682;9.016;2024-03-02T13:50:30;10.00;;;9.20;;
3405;SDS011;10008;48.682;9.016;2024-03-02T13:52:57;10.37;;;9.37;;
3405;SDS011;10008;48.682;9.016;2024-03-02T13:55:22;9.70;;;9.00;;
3405;SDS011;10008;48.682;9.016;2024-03-02T13:57:48;9.90;;;9.20;;
3405;SDS011;10008;48.682;9.016;2024-03-02T14:00:15;10.43;;;9.50;;
3405;SDS011;10008;48.682;9.016;2024-03-02T14:02:47;9.50;;;8.80;;
3405;SDS011;10008;48.682;9.016;2024-03-02T14:05:16;9.50;;;8.80;;
3405;SDS011;10008;48.682;9.016;2024-03-02T14:07:42;9.90;;;9.20;;
3405;SDS011;10008;48.682;9.016;2024-03-02T14:10:09;11.40;;;10.50;;
3405;SDS011;10008;48.682;9.016;2024-03-02T14:12:35;10.60;;;9.80;;
3405;SDS011;10008;48.682;9.016;2024-03-02T14:15:02;11.77;;;10.83;;
3405;SDS011;10008;48.682;9.016;2024-03-02T14:17:28;22.77;;;20.47;;
3405;SDS011;10008;48.682;9.016;2024-03-02T14:19:57;41.57;;;37.37;;
3405;SDS011;10008;48.682;9.016;2024-03-02T14:22:24;13.93;;;12.80;;
3405;SDS011;10008;48.682;9.016;2024-03-02T14:24:50;46.53;;;41.50;;
3405;SDS011;10008;48.682;9.016;2024-03-02T14:27:16;9.83;;;8.93;;
3405;SDS011;10008;48.682;9.016;2024-03-02T14:29:42;11.37;;;10.57;;
3405;SDS011;10008;48.682;9.016;2024-03-02T14:32:08;15.87;;;14.57;;
3405;SDS011;10008;48.682;9.016;2024-03-02T14:34:34;15.07;;;13.60;;
3405;SDS011;10008;48.682;9.016;2024-03-02T14:37:00;11.10;;;10.00;;
3405;SDS011;10008;48.682;9.016;2024-03-02T14:39:26;10.10;;;9.30;;
3405;SDS011;10008;48.682;9.016;2024-03-02T14:41:52;12.23;;;11.13;;
3405;SDS011;10008;48.682;9.016;2024-03-02T14:44:18;14.87;;;13.47;;
3405;SDS011;10008;48.682;9.016;2024-03-02T14:46:46;16.30;;;14.87;;
3405;SDS011;10008;48.682;9.016;2024-03-02T14:49:13;12.17;;;11.13;;